createdAt,value
2019-05-17T00:00:12.939Z,3.77
2019-05-17T00:03:03.503Z,3.80
2019-05-17T00:05:52.708Z,3.90
2019-05-17T00:08:43.821Z,3.77
2019-05-17T00:11:36.620Z,3.80
2019-05-17T00:14:27.109Z,4.08
2019-05-17T00:17:17.566Z,4.00
2019-05-17T00:20:10.255Z,4.08
2019-05-17T00:23:00.070Z,3.87
2019-05-17T00:25:49.735Z,3.45
2019-05-17T00:28:39.531Z,4.03
2019-05-17T00:31:29.476Z,3.92
2019-05-17T00:34:19.459Z,3.98
2019-05-17T00:37:10.534Z,4.30
2019-05-17T00:40:00.691Z,4.40
2019-05-17T00:42:51.754Z,4.53
2019-05-17T00:45:41.428Z,4.22
2019-05-17T00:48:30.450Z,4.58
2019-05-17T00:51:19.872Z,4.60
2019-05-17T00:54:09.561Z,4.70
2019-05-17T00:56:59.465Z,4.75
2019-05-17T00:59:49.697Z,4.08
2019-05-17T01:02:39.149Z,4.25
2019-05-17T01:05:28.327Z,5.55
2019-05-17T01:08:18.385Z,4.45
2019-05-17T01:11:07.982Z,4.83
2019-05-17T01:13:58.667Z,4.65
2019-05-17T01:16:48.711Z,4.42
2019-05-17T01:19:38.375Z,4.58
2019-05-17T01:22:28.085Z,5.60
2019-05-17T01:25:18.371Z,5.30
2019-05-17T01:28:07.845Z,5.03
2019-05-17T01:30:57.565Z,5.08
2019-05-17T01:33:47.186Z,4.90
2019-05-17T01:36:37.307Z,4.95
2019-05-17T01:39:27.067Z,5.12
2019-05-17T01:42:17.342Z,5.65
2019-05-17T01:45:08.618Z,4.72
2019-05-17T01:47:58.471Z,5.20
2019-05-17T01:50:47.572Z,4.95
2019-05-17T01:53:37.463Z,5.42
2019-05-17T01:56:27.011Z,4.90
2019-05-17T01:59:17.291Z,4.45
2019-05-17T02:02:10.153Z,5.67
2019-05-17T02:05:00.208Z,5.60
2019-05-17T02:07:49.862Z,4.87
2019-05-17T02:10:38.943Z,5.08
2019-05-17T02:13:28.103Z,4.97
2019-05-17T02:16:17.627Z,4.67
2019-05-17T02:19:06.878Z,4.85
2019-05-17T02:21:57.143Z,4.67
2019-05-17T02:24:46.842Z,4.92
2019-05-17T02:27:41.261Z,4.33
2019-05-17T02:30:28.270Z,4.85
2019-05-17T02:33:18.273Z,5.50
2019-05-17T02:36:07.571Z,5.03
2019-05-17T02:38:57.717Z,4.87
2019-05-17T02:41:46.580Z,5.33
2019-05-17T02:44:35.985Z,4.70
2019-05-17T02:47:24.898Z,4.65
2019-05-17T02:50:15.002Z,5.28
2019-05-17T02:53:04.829Z,4.47
2019-05-17T02:55:55.642Z,4.97
2019-05-17T02:58:46.288Z,5.30
2019-05-17T03:01:36.254Z,4.87
2019-05-17T03:04:26.200Z,5.03
2019-05-17T03:07:17.240Z,5.12
2019-05-17T03:10:18.383Z,5.92
2019-05-17T03:12:57.777Z,5.47
2019-05-17T03:15:47.783Z,5.92
2019-05-17T03:18:36.857Z,5.20
2019-05-17T03:21:27.248Z,5.00
2019-05-17T03:24:16.375Z,4.78
2019-05-17T03:27:05.954Z,5.72
2019-05-17T03:29:56.087Z,5.67
2019-05-17T03:32:48.215Z,5.85
2019-05-17T03:35:45.247Z,5.55
2019-05-17T03:38:32.491Z,5.50
2019-05-17T03:41:28.485Z,6.75
2019-05-17T03:44:13.760Z,5.37
2019-05-17T03:47:03.860Z,5.47
2019-05-17T03:49:53.312Z,5.97
2019-05-17T03:52:44.472Z,6.00
2019-05-17T03:55:35.081Z,5.00
2019-05-17T03:58:25.191Z,5.60
2019-05-17T04:01:14.783Z,5.37
2019-05-17T04:04:04.162Z,5.55
2019-05-17T04:06:53.439Z,5.95
2019-05-17T04:09:43.845Z,5.35
2019-05-17T04:12:32.955Z,6.12
2019-05-17T04:15:24.028Z,6.03
2019-05-17T04:18:14.370Z,6.20
2019-05-17T04:21:03.786Z,5.90
2019-05-17T04:23:53.923Z,6.03
2019-05-17T04:26:44.145Z,6.55
2019-05-17T04:29:35.245Z,6.12
2019-05-17T04:32:24.417Z,6.08
2019-05-17T04:35:14.075Z,7.15
2019-05-17T04:38:04.601Z,6.00
2019-05-17T04:40:54.152Z,6.28
2019-05-17T04:43:43.352Z,6.95
2019-05-17T04:46:32.788Z,6.45
2019-05-17T04:49:24.279Z,6.30
2019-05-17T04:52:13.862Z,6.97
2019-05-17T04:55:04.470Z,7.67
2019-05-17T04:57:54.153Z,6.78
2019-05-17T05:00:44.169Z,7.50
2019-05-17T05:03:33.072Z,7.40
2019-05-17T05:06:23.319Z,8.03
2019-05-17T05:09:13.076Z,7.28
2019-05-17T05:12:05.831Z,8.00
2019-05-17T05:14:52.515Z,7.95
2019-05-17T05:17:43.129Z,9.53
2019-05-17T05:20:33.242Z,8.95
2019-05-17T05:23:23.837Z,8.65
2019-05-17T05:26:14.050Z,9.48
2019-05-17T05:29:03.629Z,10.40
2019-05-17T05:31:53.267Z,9.88
2019-05-17T05:34:43.290Z,9.75
2019-05-17T05:37:33.361Z,9.00
2019-05-17T05:40:22.274Z,9.85
2019-05-17T05:43:12.203Z,11.25
2019-05-17T05:46:02.618Z,9.55
2019-05-17T05:48:53.274Z,10.43
2019-05-17T05:51:43.497Z,9.48
2019-05-17T05:54:33.456Z,10.55
2019-05-17T05:57:22.812Z,10.40
2019-05-17T06:00:13.476Z,13.00
2019-05-17T06:03:04.202Z,12.80
2019-05-17T06:05:54.034Z,12.37
2019-05-17T06:08:44.251Z,11.22
2019-05-17T06:11:34.090Z,10.75
2019-05-17T06:14:23.453Z,12.03
2019-05-17T06:17:13.758Z,11.28
2019-05-17T06:20:03.589Z,12.78
2019-05-17T06:22:54.286Z,11.25
2019-05-17T06:25:44.223Z,12.03
2019-05-17T06:28:34.204Z,11.57
2019-05-17T06:31:24.175Z,11.30
2019-05-17T06:34:14.415Z,11.80
2019-05-17T06:37:04.671Z,12.03
2019-05-17T06:39:54.652Z,10.88
2019-05-17T06:42:47.026Z,9.98
2019-05-17T06:45:37.314Z,10.68
2019-05-17T06:48:28.207Z,11.00
2019-05-17T06:51:17.794Z,10.63
2019-05-17T06:54:07.796Z,10.15
2019-05-17T06:56:58.930Z,11.03
2019-05-17T06:59:48.754Z,9.85
2019-05-17T07:02:40.228Z,10.30
2019-05-17T07:05:32.943Z,10.53
2019-05-17T07:08:23.614Z,9.93
2019-05-17T07:11:15.064Z,10.58
2019-05-17T07:14:05.432Z,9.93
2019-05-17T07:16:55.789Z,10.25
2019-05-17T07:19:45.942Z,10.15
2019-05-17T07:22:35.500Z,10.80
2019-05-17T07:25:25.023Z,10.25
2019-05-17T07:28:15.110Z,10.40
2019-05-17T07:31:05.147Z,10.40
2019-05-17T07:33:55.512Z,10.38
2019-05-17T07:36:45.563Z,9.63
2019-05-17T07:39:36.103Z,9.10
2019-05-17T07:42:26.321Z,8.88
2019-05-17T07:45:15.691Z,8.60
2019-05-17T07:48:05.816Z,8.38
2019-05-17T07:50:56.770Z,9.05
2019-05-17T07:53:46.094Z,8.93
2019-05-17T07:56:34.870Z,9.20
2019-05-17T07:59:24.081Z,9.10
2019-05-17T08:02:13.940Z,8.13
2019-05-17T08:05:04.158Z,8.95
2019-05-17T08:07:53.355Z,9.23
2019-05-17T08:10:42.471Z,9.90
2019-05-17T08:13:33.817Z,8.68
2019-05-17T08:16:23.375Z,9.55
2019-05-17T08:19:12.783Z,8.88
2019-05-17T08:22:02.421Z,9.73
2019-05-17T08:24:51.981Z,9.90
2019-05-17T08:27:42.294Z,9.00
2019-05-17T08:30:32.178Z,9.08
2019-05-17T08:33:22.122Z,8.73
2019-05-17T08:36:12.155Z,8.28
2019-05-17T08:39:02.057Z,8.00
2019-05-17T08:41:51.928Z,7.90
2019-05-17T08:44:42.596Z,7.00
2019-05-17T08:47:32.817Z,7.95
2019-05-17T08:50:23.076Z,8.00
2019-05-17T08:53:11.951Z,8.20
2019-05-17T08:56:01.643Z,7.58
2019-05-17T08:58:51.105Z,8.40
2019-05-17T09:01:41.793Z,7.35
2019-05-17T09:04:30.754Z,7.87
2019-05-17T09:07:20.593Z,7.55
2019-05-17T09:10:10.749Z,6.97
2019-05-17T09:13:00.299Z,6.83
2019-05-17T09:15:49.816Z,7.30
2019-05-17T09:18:41.899Z,7.90
2019-05-17T09:21:31.616Z,7.22
2019-05-17T09:24:20.887Z,6.58
2019-05-17T09:27:10.249Z,7.03
2019-05-17T09:30:00.282Z,6.72
2019-05-17T09:32:50.539Z,6.40
2019-05-17T09:35:40.792Z,6.42
2019-05-17T09:38:31.540Z,6.62
2019-05-17T09:41:23.629Z,5.85
2019-05-17T09:44:16.257Z,6.85
2019-05-17T09:47:03.421Z,6.20
2019-05-17T09:49:53.382Z,6.42
2019-05-17T09:52:42.306Z,6.85
2019-05-17T09:55:31.401Z,6.40
2019-05-17T09:58:21.655Z,7.53
2019-05-17T10:01:11.457Z,6.35
2019-05-17T10:04:00.452Z,6.92
2019-05-17T10:06:51.211Z,7.50
2019-05-17T10:09:40.141Z,6.60
2019-05-17T10:12:28.863Z,6.58
2019-05-17T10:15:17.402Z,6.25
2019-05-17T10:18:06.477Z,5.78
2019-05-17T10:20:55.117Z,6.12
2019-05-17T10:23:44.503Z,5.53
2019-05-17T10:26:33.189Z,5.97
2019-05-17T10:29:21.828Z,5.70
2019-05-17T10:32:11.756Z,6.00
2019-05-17T10:35:01.240Z,6.00
2019-05-17T10:37:50.574Z,6.20
2019-05-17T10:40:40.776Z,5.72
2019-05-17T10:43:31.586Z,5.15
2019-05-17T10:46:21.125Z,6.17
2019-05-17T10:49:10.997Z,5.87
2019-05-17T10:52:00.167Z,5.33
2019-05-17T10:54:49.766Z,5.78
2019-05-17T10:57:39.339Z,5.42
2019-05-17T11:00:30.314Z,4.85
2019-05-17T11:03:20.340Z,6.10
2019-05-17T11:06:10.947Z,5.53
2019-05-17T11:08:59.814Z,5.83
2019-05-17T11:11:49.320Z,5.42
2019-05-17T11:14:52.349Z,5.22
2019-05-17T11:17:29.167Z,4.90
2019-05-17T11:20:18.333Z,5.10
2019-05-17T11:23:07.436Z,4.45
2019-05-17T11:25:56.367Z,4.78
2019-05-17T11:28:45.736Z,5.12
2019-05-17T11:31:35.141Z,4.67
2019-05-17T11:34:25.600Z,4.65
2019-05-17T11:37:14.851Z,4.92
2019-05-17T11:40:08.043Z,4.17
2019-05-17T11:42:55.903Z,4.58
2019-05-17T11:45:46.012Z,3.67
2019-05-17T11:48:35.119Z,4.10
2019-05-17T11:51:26.971Z,4.55
2019-05-17T11:54:15.592Z,4.70
2019-05-17T11:57:04.357Z,4.35
2019-05-17T11:59:53.974Z,4.35
2019-05-17T12:02:43.422Z,4.17
2019-05-17T12:05:32.957Z,4.00
2019-05-17T12:08:22.508Z,3.95
2019-05-17T12:11:12.146Z,4.00
2019-05-17T12:14:01.885Z,4.03
2019-05-17T12:16:50.909Z,4.70
2019-05-17T12:19:40.813Z,4.20
2019-05-17T12:22:30.285Z,4.60
2019-05-17T12:25:20.960Z,4.58
2019-05-17T12:28:10.198Z,4.25
2019-05-17T12:30:59.371Z,4.70
2019-05-17T12:33:48.952Z,4.37
2019-05-17T12:36:38.508Z,4.60
2019-05-17T12:39:27.228Z,4.25
2019-05-17T12:42:16.413Z,4.47
2019-05-17T12:45:05.293Z,4.33
2019-05-17T12:47:54.955Z,4.55
2019-05-17T12:50:44.373Z,4.25
2019-05-17T12:53:34.018Z,4.22
2019-05-17T12:56:22.736Z,4.20
2019-05-17T12:59:11.389Z,4.08
2019-05-17T13:02:00.892Z,4.40
2019-05-17T13:04:50.587Z,4.45
2019-05-17T13:07:40.592Z,3.87
2019-05-17T13:10:30.450Z,4.17
2019-05-17T13:13:19.501Z,4.00
2019-05-17T13:16:17.423Z,4.30
2019-05-17T13:18:59.946Z,4.08
2019-05-17T13:21:49.680Z,4.05
2019-05-17T13:24:38.915Z,4.35
2019-05-17T13:27:28.557Z,4.42
2019-05-17T13:30:38.772Z,4.30
2019-05-17T13:33:29.304Z,4.83
2019-05-17T13:36:18.836Z,4.50
2019-05-17T13:39:08.481Z,4.65
2019-05-17T13:41:57.385Z,4.50
2019-05-17T13:44:46.069Z,5.25
2019-05-17T13:47:35.531Z,5.37
2019-05-17T13:50:24.673Z,6.15
2019-05-17T13:53:14.083Z,5.20
2019-05-17T13:56:03.616Z,5.40
2019-05-17T13:58:53.108Z,5.50
2019-05-17T14:01:43.003Z,5.55
2019-05-17T14:04:31.970Z,4.17
2019-05-17T14:07:20.984Z,5.65
2019-05-17T14:10:26.063Z,5.28
2019-05-17T14:13:03.177Z,6.10
2019-05-17T14:15:52.793Z,5.10
2019-05-17T14:18:42.047Z,5.72
2019-05-17T14:21:31.255Z,5.20
2019-05-17T14:24:20.949Z,5.37
2019-05-17T14:27:10.449Z,5.67
2019-05-17T14:30:00.006Z,5.08
2019-05-17T14:32:49.245Z,5.25
2019-05-17T14:35:40.114Z,4.90
2019-05-17T14:38:28.700Z,5.40
2019-05-17T14:41:17.994Z,4.67
2019-05-17T14:44:07.350Z,4.95
2019-05-17T14:46:56.562Z,5.40
2019-05-17T14:49:45.521Z,5.00
2019-05-17T14:52:34.678Z,4.45
2019-05-17T14:55:23.650Z,4.40
2019-05-17T14:58:13.034Z,4.50
2019-05-17T15:01:02.377Z,4.00
2019-05-17T15:03:52.220Z,4.67
2019-05-17T15:06:41.919Z,4.28
2019-05-17T15:09:31.135Z,4.33
2019-05-17T15:12:28.387Z,4.17
2019-05-17T15:15:11.186Z,3.70
2019-05-17T15:17:59.950Z,4.37
2019-05-17T15:20:48.530Z,4.53
2019-05-17T15:23:37.180Z,3.80
2019-05-17T15:26:27.924Z,4.10
2019-05-17T15:29:17.346Z,4.75
2019-05-17T15:32:07.428Z,4.22
2019-05-17T15:34:56.087Z,4.45
2019-05-17T15:37:45.151Z,4.70
2019-05-17T15:40:35.045Z,4.50
2019-05-17T15:43:25.264Z,4.58
2019-05-17T15:46:14.806Z,4.45
2019-05-17T15:49:03.456Z,4.70
2019-05-17T15:51:52.542Z,4.62
2019-05-17T15:54:41.816Z,4.78
2019-05-17T15:57:30.539Z,4.67
2019-05-17T16:00:20.085Z,4.50
2019-05-17T16:03:09.393Z,5.03
2019-05-17T16:05:58.599Z,4.80
2019-05-17T16:08:48.072Z,5.08
2019-05-17T16:11:37.590Z,5.05
2019-05-17T16:14:26.594Z,4.95
2019-05-17T16:17:16.063Z,4.80
2019-05-17T16:20:05.587Z,4.80
2019-05-17T16:22:55.214Z,3.98
2019-05-17T16:25:44.782Z,4.10
2019-05-17T16:28:33.992Z,4.60
2019-05-17T16:31:23.403Z,4.85
2019-05-17T16:34:12.191Z,5.35
2019-05-17T16:37:01.607Z,4.85
2019-05-17T16:39:51.031Z,4.53
2019-05-17T16:42:40.400Z,4.97
2019-05-17T16:45:29.659Z,4.65
2019-05-17T16:48:19.045Z,4.17
2019-05-17T16:51:08.754Z,4.20
2019-05-17T16:54:03.907Z,4.45
2019-05-17T16:56:50.440Z,4.08
2019-05-17T16:59:39.368Z,4.28
2019-05-17T17:02:28.247Z,3.90
2019-05-17T17:05:17.794Z,3.72
2019-05-17T17:08:08.028Z,3.70
2019-05-17T17:10:57.311Z,4.70
2019-05-17T17:13:48.261Z,3.52
2019-05-17T17:16:37.466Z,4.05
2019-05-17T17:23:04.946Z,3.15
2019-05-17T17:25:53.634Z,4.25
2019-05-17T17:28:42.620Z,3.85
2019-05-17T17:31:31.323Z,4.10
2019-05-17T17:34:20.059Z,4.62
2019-05-17T17:37:09.409Z,5.12
2019-05-17T17:39:58.857Z,4.03
2019-05-17T17:42:48.695Z,4.87
2019-05-17T17:45:37.856Z,4.70
2019-05-17T17:48:27.290Z,3.87
2019-05-17T17:51:16.093Z,4.28
2019-05-17T17:54:04.985Z,4.33
2019-05-17T17:56:56.313Z,4.60
2019-05-17T17:59:46.368Z,5.00
2019-05-17T18:02:35.808Z,4.72
2019-05-17T18:05:25.388Z,4.25
2019-05-17T18:08:14.397Z,4.37
2019-05-17T18:11:03.803Z,5.05
2019-05-17T18:13:53.775Z,4.75
2019-05-17T18:16:43.623Z,4.15
2019-05-17T18:19:33.261Z,3.92
2019-05-17T18:22:22.493Z,4.33
2019-05-17T18:25:11.637Z,4.10
2019-05-17T18:28:01.012Z,4.00
2019-05-17T18:30:49.669Z,4.28
2019-05-17T18:33:42.046Z,4.22
2019-05-17T18:36:32.971Z,4.10
2019-05-17T18:39:24.782Z,4.25
2019-05-17T18:42:15.373Z,4.08
2019-05-17T18:45:05.981Z,4.72
2019-05-17T18:47:56.129Z,4.47
2019-05-17T18:50:48.647Z,4.83
2019-05-17T18:53:42.711Z,4.60
2019-05-17T18:56:37.674Z,4.45
2019-05-17T18:59:34.107Z,4.25
2019-05-17T19:02:23.886Z,4.58
2019-05-17T19:05:15.551Z,4.58
2019-05-17T19:08:10.036Z,4.55
2019-05-17T19:11:00.028Z,4.30
2019-05-17T19:13:50.667Z,4.80
2019-05-17T19:16:42.972Z,4.60
2019-05-17T19:19:36.120Z,4.75
2019-05-17T19:22:27.548Z,4.97
2019-05-17T19:25:17.446Z,5.45
2019-05-17T19:28:07.497Z,4.78
2019-05-17T19:30:59.837Z,5.58
2019-05-17T19:33:51.265Z,5.03
2019-05-17T19:36:41.782Z,5.37
2019-05-17T19:39:34.578Z,6.10
2019-05-17T19:42:32.823Z,5.35
2019-05-17T19:45:22.758Z,5.60
2019-05-17T19:48:15.485Z,5.20
2019-05-17T19:51:14.359Z,5.62
2019-05-17T19:54:09.378Z,5.35
2019-05-17T19:56:59.998Z,6.15
2019-05-17T19:59:52.592Z,6.10
2019-05-17T20:02:42.547Z,5.53
2019-05-17T20:05:34.057Z,5.90
2019-05-17T20:08:24.884Z,5.92
2019-05-17T20:11:14.725Z,5.58
2019-05-17T20:14:06.845Z,5.97
2019-05-17T20:16:58.694Z,6.08
2019-05-17T20:19:52.193Z,5.50
2019-05-17T20:22:43.189Z,6.30
2019-05-17T20:25:35.166Z,5.97
2019-05-17T20:28:29.184Z,6.30
2019-05-17T20:31:20.574Z,5.50
2019-05-17T20:34:12.872Z,5.45
2019-05-17T20:37:06.815Z,5.92
2019-05-17T20:39:57.940Z,6.40
2019-05-17T20:42:48.518Z,5.50
2019-05-17T20:45:40.663Z,5.62
2019-05-17T20:48:30.559Z,4.92
2019-05-17T20:51:20.809Z,5.50
2019-05-17T20:54:10.874Z,5.33
2019-05-17T20:57:00.711Z,5.97
2019-05-17T20:59:55.080Z,5.22
2019-05-17T21:02:46.362Z,5.40
2019-05-17T21:05:37.851Z,5.53
2019-05-17T21:08:27.988Z,4.90
2019-05-17T21:11:19.467Z,5.03
2019-05-17T21:14:10.497Z,5.20
2019-05-17T21:20:16.457Z,5.10
2019-05-17T21:23:06.327Z,5.30
2019-05-17T21:25:59.196Z,5.12
2019-05-17T21:28:48.811Z,5.45
2019-05-17T21:31:38.696Z,5.22
2019-05-17T21:34:30.278Z,4.83
2019-05-17T21:37:20.840Z,5.90
2019-05-17T21:40:13.118Z,5.58
2019-05-17T21:43:05.357Z,5.70
2019-05-17T21:46:04.111Z,5.87
2019-05-17T21:48:53.130Z,5.58
2019-05-17T21:51:45.314Z,5.80
2019-05-17T21:54:35.824Z,5.90
2019-05-17T21:57:30.195Z,5.97
2019-05-17T22:01:22.108Z,5.83
2019-05-17T22:04:12.815Z,5.80
2019-05-17T22:07:06.203Z,6.22
2019-05-17T22:09:56.700Z,5.97
2019-05-17T22:12:48.028Z,5.33
2019-05-17T22:15:41.478Z,6.00
2019-05-17T22:18:31.694Z,6.20
2019-05-17T22:21:21.026Z,6.42
2019-05-17T22:24:09.878Z,5.72
2019-05-17T22:26:59.201Z,5.90
2019-05-17T22:29:50.882Z,6.58
2019-05-17T22:32:41.730Z,6.12
2019-05-17T22:35:31.004Z,6.05
2019-05-17T22:38:20.694Z,6.17
2019-05-17T22:41:11.061Z,6.10
2019-05-17T22:44:00.295Z,6.42
2019-05-17T22:46:49.807Z,6.10
2019-05-17T22:49:42.085Z,5.60
2019-05-17T22:52:36.400Z,6.80
2019-05-17T22:55:26.700Z,6.22
2019-05-17T22:58:16.479Z,5.85
2019-05-17T23:01:08.886Z,6.40
2019-05-17T23:03:59.301Z,5.90
2019-05-17T23:06:49.254Z,6.33
2019-05-17T23:09:42.617Z,5.72
2019-05-17T23:12:32.236Z,6.08
2019-05-17T23:15:22.212Z,5.97
2019-05-17T23:18:13.550Z,6.10
2019-05-17T23:21:03.122Z,5.75
2019-05-17T23:23:52.600Z,6.53
2019-05-17T23:26:41.670Z,5.75
2019-05-17T23:29:30.898Z,5.60
2019-05-17T23:32:20.506Z,6.05
2019-05-17T23:35:09.719Z,6.22
2019-05-17T23:37:58.796Z,5.70
2019-05-17T23:40:47.395Z,6.25
2019-05-17T23:43:37.035Z,5.83
2019-05-17T23:46:25.833Z,5.92
2019-05-17T23:49:14.471Z,5.87
2019-05-17T23:52:04.240Z,5.35
2019-05-17T23:54:53.109Z,5.97
2019-05-17T23:57:42.448Z,6.50
